createdAt,value
2022-08-01T00:00:10.046Z,101384.78
2022-08-01T00:02:43.016Z,101343.66
2022-08-01T00:05:15.941Z,101412.78
2022-08-01T00:07:48.529Z,101388.53
2022-08-01T00:10:21.951Z,101413.84
2022-08-01T00:12:54.549Z,101363.69
2022-08-01T00:15:27.124Z,101423.31
2022-08-01T00:17:59.683Z,101391.81
2022-08-01T00:20:32.372Z,101403.75
2022-08-01T00:23:04.965Z,101405.94
2022-08-01T00:25:37.611Z,101418.50
2022-08-01T00:28:10.759Z,101364.31
2022-08-01T00:30:43.325Z,101374.41
2022-08-01T00:33:15.982Z,101389.16
2022-08-01T00:35:48.536Z,101400.78
2022-08-01T00:38:21.157Z,101386.03
2022-08-01T00:40:55.487Z,101408.72
2022-08-01T00:43:28.232Z,101388.22
2022-08-01T00:46:00.919Z,101403.13
2022-08-01T00:48:33.468Z,101404.06
2022-08-01T00:51:09.114Z,101420.06
2022-08-01T00:53:51.138Z,101424.28
2022-08-01T00:56:27.188Z,101396.59
2022-08-01T00:59:00.253Z,101395.97
2022-08-01T01:01:39.661Z,101325.03
2022-08-01T01:04:12.777Z,101393.81
2022-08-01T01:07:00.311Z,101378.00
2022-08-01T01:10:02.136Z,101417.72
2022-08-01T01:12:55.447Z,101400.97
2022-08-01T01:15:37.967Z,101396.47
2022-08-01T01:18:31.548Z,101374.09
2022-08-01T01:21:21.110Z,101430.31
2022-08-01T01:24:34.104Z,101428.31
2022-08-01T01:27:46.251Z,101404.69
2022-08-01T01:30:20.179Z,101332.34
2022-08-01T01:32:59.532Z,101405.47
2022-08-01T01:35:39.419Z,101429.88
2022-08-01T01:38:22.064Z,101368.97
2022-08-01T01:40:58.681Z,101364.31
2022-08-01T01:43:34.015Z,101390.38
2022-08-01T01:46:10.178Z,101427.38
2022-08-01T01:48:56.576Z,101427.69
2022-08-01T01:51:30.605Z,101430.31
2022-08-01T01:54:06.569Z,101400.03
2022-08-01T01:56:49.626Z,101428.59
2022-08-01T01:59:42.327Z,101391.97
2022-08-01T02:02:28.527Z,101362.47
2022-08-01T02:05:13.007Z,101362.47
2022-08-01T02:07:46.546Z,101418.38
2022-08-01T02:10:21.997Z,101357.78
2022-08-01T02:13:05.124Z,101399.09
2022-08-01T02:15:39.308Z,101407.16
2022-08-01T02:18:33.562Z,101373.00
2022-08-01T02:21:21.422Z,101366.16
2022-08-01T02:24:09.406Z,101338.69
2022-08-01T02:26:50.736Z,101389.78
2022-08-01T02:29:31.183Z,101370.38
2022-08-01T02:32:08.930Z,101364.31
2022-08-01T02:34:47.581Z,101359.50
2022-08-01T02:37:22.692Z,101358.09
2022-08-01T02:39:57.074Z,101401.88
2022-08-01T02:42:33.401Z,101343.50
2022-08-01T02:45:09.741Z,101374.56
2022-08-01T02:47:46.976Z,101367.75
2022-08-01T02:50:21.456Z,101377.50
2022-08-01T02:52:58.159Z,101355.78
2022-08-01T02:55:35.120Z,101356.56
2022-08-01T02:58:13.791Z,101373.66
2022-08-01T03:00:48.569Z,101343.06
2022-08-01T03:03:21.894Z,101326.00
2022-08-01T03:05:55.937Z,101393.19
2022-08-01T03:08:31.495Z,101420.53
2022-08-01T03:11:07.925Z,101395.69
2022-08-01T03:13:45.684Z,101324.88
2022-08-01T03:16:22.718Z,101336.69
2022-08-01T03:18:58.211Z,101376.59
2022-08-01T03:21:32.988Z,101379.56
2022-08-01T03:24:08.897Z,101372.22
2022-08-01T03:26:44.381Z,101423.47
2022-08-01T03:29:21.943Z,101378.91
2022-08-01T03:31:54.803Z,101366.50
2022-08-01T03:34:28.489Z,101338.53
2022-08-01T03:37:27.839Z,101375.19
2022-08-01T03:40:12.116Z,101432.50
2022-08-01T03:43:01.434Z,101427.66
2022-08-01T03:45:42.363Z,101376.13
2022-08-01T03:48:19.759Z,101376.44
2022-08-01T03:50:54.093Z,101391.94
2022-08-01T03:53:33.216Z,101337.16
2022-08-01T03:56:09.626Z,101379.56
2022-08-01T03:58:44.657Z,101425.03
2022-08-01T04:01:23.084Z,101364.31
2022-08-01T04:03:56.164Z,101389.94
2022-08-01T04:06:30.160Z,101378.28
2022-08-01T04:09:02.892Z,101360.91
2022-08-01T04:11:35.884Z,101406.88
2022-08-01T04:14:09.546Z,101340.09
2022-08-01T04:16:42.389Z,101390.41
2022-08-01T04:19:15.093Z,101335.72
2022-08-01T04:21:48.797Z,101446.28
2022-08-01T04:24:25.823Z,101376.44
2022-08-01T04:27:02.442Z,101355.16
2022-08-01T04:29:37.103Z,101417.44
2022-08-01T04:32:16.118Z,101446.66
2022-08-01T04:34:51.852Z,101367.44
2022-08-01T04:37:26.934Z,101392.75
2022-08-01T04:40:01.927Z,101404.69
2022-08-01T04:42:35.024Z,101423.66
2022-08-01T04:45:09.994Z,101414.94
2022-08-01T04:47:44.677Z,101386.69
2022-08-01T04:50:18.183Z,101362.00
2022-08-01T04:52:52.061Z,101462.59
2022-08-01T04:55:24.727Z,101474.31
2022-08-01T04:57:57.599Z,101405.91
2022-08-01T05:00:30.240Z,101421.16
2022-08-01T05:03:03.954Z,101441.34
2022-08-01T05:05:36.608Z,101420.84
2022-08-01T05:08:19.552Z,101426.44
2022-08-01T05:10:52.380Z,101406.53
2022-08-01T05:13:25.083Z,101432.19
2022-08-01T05:15:57.833Z,101406.84
2022-08-01T05:18:30.583Z,101424.72
2022-08-01T05:21:03.761Z,101433.75
2022-08-01T05:23:45.463Z,101463.72
2022-08-01T05:26:18.641Z,101448.19
2022-08-01T05:28:51.403Z,101497.19
2022-08-01T05:31:24.096Z,101439.75
2022-08-01T05:33:56.881Z,101427.31
2022-08-01T05:36:30.649Z,101410.84
2022-08-01T05:39:13.503Z,101414.56
2022-08-01T05:41:46.293Z,101483.19
2022-08-01T05:44:19.002Z,101492.06
2022-08-01T05:46:52.423Z,101423.63
2022-08-01T05:49:25.309Z,101461.19
2022-08-01T05:51:58.037Z,101412.44
2022-08-01T05:54:36.130Z,101407.94
2022-08-01T05:57:08.969Z,101481.28
2022-08-01T05:59:41.806Z,101396.91
2022-08-01T06:02:16.986Z,101445.19
2022-08-01T06:04:52.966Z,101432.94
2022-08-01T06:07:38.999Z,101491.75
2022-08-01T06:10:12.505Z,101404.25
2022-08-01T06:12:45.304Z,101485.91
2022-08-01T06:15:23.678Z,101436.22
2022-08-01T06:17:56.670Z,101436.53
2022-08-01T06:20:38.302Z,101467.56
2022-08-01T06:23:28.516Z,101461.22
2022-08-01T06:26:04.309Z,101411.44
2022-08-01T06:28:37.887Z,101467.69
2022-08-01T06:31:33.745Z,101470.44
2022-08-01T06:34:08.077Z,101469.66
2022-08-01T06:36:43.742Z,101401.00
2022-08-01T06:39:20.227Z,101514.03
2022-08-01T06:42:00.338Z,101411.47
2022-08-01T06:44:41.001Z,101467.88
2022-08-01T06:47:14.441Z,101481.75
2022-08-01T06:49:47.289Z,101466.38
2022-08-01T06:52:24.560Z,101465.44
2022-08-01T06:55:06.094Z,101481.38
2022-08-01T06:57:55.942Z,101535.72
2022-08-01T07:00:29.337Z,101441.72
2022-08-01T07:03:02.079Z,101464.66
2022-08-01T07:05:39.719Z,101454.69
2022-08-01T07:08:22.052Z,101447.25
2022-08-01T07:11:00.936Z,101506.22
2022-08-01T07:13:43.608Z,101471.06
2022-08-01T07:16:32.090Z,101501.22
2022-08-01T07:19:24.209Z,101462.56
2022-08-01T07:22:08.130Z,101499.25
2022-08-01T07:24:47.951Z,101483.59
2022-08-01T07:27:27.015Z,101466.75
2022-08-01T07:30:00.242Z,101444.06
2022-08-01T07:32:38.448Z,101455.81
2022-08-01T07:35:38.785Z,101547.50
2022-08-01T07:38:12.976Z,101463.28
2022-08-01T07:40:48.255Z,101513.03
2022-08-01T07:43:26.079Z,101545.09
2022-08-01T07:46:04.662Z,101554.16
2022-08-01T07:48:54.318Z,101455.53
2022-08-01T07:51:32.194Z,101557.75
2022-08-01T07:54:34.811Z,101476.53
2022-08-01T07:57:17.006Z,101549.47
2022-08-01T08:00:29.692Z,101467.03
2022-08-01T08:03:08.272Z,101465.81
2022-08-01T08:08:44.389Z,101519.78
2022-08-01T08:11:36.723Z,101556.69
2022-08-01T08:14:48.830Z,101452.34
2022-08-01T08:17:35.641Z,101530.41
2022-08-01T08:20:34.522Z,101522.78
2022-08-01T08:23:42.721Z,101497.91
2022-08-01T08:26:18.387Z,101568.53
2022-08-01T08:29:04.640Z,101579.38
2022-08-01T08:31:52.519Z,101485.44
2022-08-01T08:37:24.799Z,101508.78
2022-08-01T08:43:15.146Z,101544.75
2022-08-01T08:46:11.211Z,101484.97
2022-08-01T08:48:59.366Z,101517.22
2022-08-01T08:52:02.814Z,101526.84
2022-08-01T08:55:27.179Z,101518.56
2022-08-01T09:01:28.624Z,101527.22
2022-08-01T09:04:26.069Z,101534.56
2022-08-01T09:07:31.387Z,101511.53
2022-08-01T09:10:29.234Z,101548.44
2022-08-01T09:13:26.815Z,101539.13
2022-08-01T09:16:27.188Z,101522.56
2022-08-01T09:19:57.684Z,101481.97
2022-08-01T09:25:47.963Z,101538.28
2022-08-01T09:28:39.008Z,101506.56
2022-08-01T09:31:27.496Z,101571.81
2022-08-01T09:34:47.527Z,101507.22
2022-08-01T09:37:41.457Z,101511.81
2022-08-01T09:41:06.946Z,101575.66
2022-08-01T09:44:05.575Z,101489.63
2022-08-01T09:49:59.261Z,101476.41
2022-08-01T09:54:20.709Z,101516.91
2022-08-01T09:55:37.152Z,101471.63
2022-08-01T09:58:29.483Z,101527.00
2022-08-01T10:01:27.129Z,101464.50
2022-08-01T10:07:43.616Z,101555.22
2022-08-01T10:13:36.414Z,101527.97
2022-08-01T10:16:39.556Z,101485.19
2022-08-01T10:19:31.819Z,101491.94
2022-08-01T10:19:37.607Z,101547.25
2022-08-01T10:25:46.855Z,101481.75
2022-08-01T10:29:45.071Z,101493.09
2022-08-01T10:32:07.581Z,101567.38
2022-08-01T10:38:10.910Z,101471.66
2022-08-01T10:41:06.455Z,101487.50
2022-08-01T10:50:59.402Z,101573.19
2022-08-01T10:53:42.970Z,101493.44
2022-08-01T10:56:21.480Z,101566.25
2022-08-01T10:59:49.361Z,101549.47
2022-08-01T11:02:11.976Z,101491.25
2022-08-01T11:05:39.849Z,101566.59
2022-08-01T11:08:24.046Z,101546.03
2022-08-01T11:11:37.600Z,101501.06
2022-08-01T11:15:17.243Z,101528.56
2022-08-01T11:17:49.655Z,101573.47
2022-08-01T11:23:52.124Z,101504.56
2022-08-01T11:26:32.463Z,101562.09
2022-08-01T11:29:50.020Z,101540.97
2022-08-01T11:32:29.325Z,101549.81
2022-08-01T11:35:22.261Z,101545.88
2022-08-01T11:38:01.411Z,101545.13
2022-08-01T11:40:58.115Z,101550.72
2022-08-01T11:44:03.485Z,101532.34
2022-08-01T11:47:15.014Z,101611.53
2022-08-01T11:49:57.307Z,101530.06
2022-08-01T11:55:32.171Z,101574.75
2022-08-01T11:58:08.899Z,101572.50
2022-08-01T12:01:01.517Z,101574.91
2022-08-01T12:03:58.195Z,101584.03
2022-08-01T12:06:36.905Z,101522.66
2022-08-01T12:09:36.167Z,101613.03
2022-08-01T12:12:10.610Z,101626.72
2022-08-01T12:14:46.984Z,101557.59
2022-08-01T12:17:19.807Z,101614.78
2022-08-01T12:20:04.131Z,101559.63
2022-08-01T12:22:42.703Z,101557.78
2022-08-01T12:25:18.871Z,101579.69
2022-08-01T12:27:57.980Z,101567.81
2022-08-01T12:30:36.488Z,101571.59
2022-08-01T12:33:19.928Z,101626.75
2022-08-01T12:36:27.249Z,101523.16
2022-08-01T12:39:03.707Z,101533.91
2022-08-01T12:41:44.239Z,101572.75
2022-08-01T12:44:17.852Z,101545.75
2022-08-01T12:46:51.045Z,101546.53
2022-08-01T12:49:39.385Z,101560.06
2022-08-01T12:52:13.524Z,101576.91
2022-08-01T12:55:34.568Z,101581.91
2022-08-01T12:58:16.734Z,101552.09
2022-08-01T13:01:03.018Z,101558.00
2022-08-01T13:03:58.366Z,101550.06
2022-08-01T13:06:44.301Z,101595.91
2022-08-01T13:09:26.114Z,101516.38
2022-08-01T13:12:11.028Z,101547.44
2022-08-01T13:14:46.865Z,101606.53
2022-08-01T13:17:40.796Z,101560.31
2022-08-01T13:20:33.440Z,101557.59
2022-08-01T13:23:23.450Z,101533.47
2022-08-01T13:26:52.170Z,101614.59
2022-08-01T13:29:53.826Z,101528.38
2022-08-01T13:32:36.010Z,101536.59
2022-08-01T13:35:16.801Z,101590.69
2022-08-01T13:37:50.975Z,101512.56
2022-08-01T13:40:30.585Z,101592.81
2022-08-01T13:43:12.929Z,101595.81
2022-08-01T13:45:47.025Z,101581.72
2022-08-01T13:48:20.954Z,101592.69
2022-08-01T13:51:20.061Z,101562.22
2022-08-01T13:53:58.978Z,101573.69
2022-08-01T13:56:34.484Z,101529.94
2022-08-01T13:59:29.280Z,101589.84
2022-08-01T14:02:02.433Z,101588.00
2022-08-01T14:04:45.311Z,101566.41
2022-08-01T14:07:18.114Z,101569.75
2022-08-01T14:10:24.278Z,101510.16
2022-08-01T14:12:56.754Z,101517.75
2022-08-01T14:15:39.130Z,101518.28
2022-08-01T14:18:28.649Z,101539.50
2022-08-01T14:21:05.536Z,101510.97
2022-08-01T14:23:41.231Z,101571.47
2022-08-01T14:26:14.774Z,101502.16
2022-08-01T14:28:51.030Z,101561.59
2022-08-01T14:31:34.602Z,101526.06
2022-08-01T14:34:10.299Z,101517.75
2022-08-01T14:36:48.616Z,101502.88
2022-08-01T14:39:24.629Z,101535.50
2022-08-01T14:42:21.156Z,101544.91
2022-08-01T14:44:56.493Z,101495.34
2022-08-01T14:47:40.808Z,101605.41
2022-08-01T14:50:17.363Z,101527.56
2022-08-01T14:52:54.852Z,101536.06
2022-08-01T14:56:01.081Z,101599.50
2022-08-01T14:58:49.326Z,101566.31
2022-08-01T15:01:30.810Z,101511.53
2022-08-01T15:04:17.411Z,101573.25
2022-08-01T15:08:34.546Z,101592.88
2022-08-01T15:10:07.369Z,101553.72
2022-08-01T15:12:50.237Z,101540.84
2022-08-01T15:15:32.564Z,101519.22
2022-08-01T15:18:10.959Z,101598.19
2022-08-01T15:20:55.410Z,101551.59
2022-08-01T15:23:28.661Z,101522.34
2022-08-01T15:26:28.537Z,101541.81
2022-08-01T15:29:01.227Z,101539.63
2022-08-01T15:31:36.388Z,101577.94
2022-08-01T15:35:05.783Z,101517.00
2022-08-01T15:37:42.762Z,101566.19
2022-08-01T15:40:20.754Z,101614.56
2022-08-01T15:43:09.298Z,101518.03
2022-08-01T15:45:49.139Z,101510.97
2022-08-01T15:51:10.870Z,101548.00
2022-08-01T15:53:43.649Z,101555.03
2022-08-01T15:56:29.229Z,101614.88
2022-08-01T15:59:02.239Z,101513.50
2022-08-01T16:04:41.588Z,101518.38
2022-08-01T16:07:14.586Z,101543.56
2022-08-01T16:09:56.709Z,101515.94
2022-08-01T16:12:35.419Z,101573.41
2022-08-01T16:15:14.123Z,101556.56
2022-08-01T16:18:15.938Z,101617.47
2022-08-01T16:20:48.684Z,101554.00
2022-08-01T16:23:21.240Z,101546.53
2022-08-01T16:25:54.438Z,101588.41
2022-08-01T16:28:27.052Z,101591.25
2022-08-01T16:31:15.204Z,101587.84
2022-08-01T16:33:54.068Z,101591.63
2022-08-01T16:36:28.885Z,101590.66
2022-08-01T16:39:01.686Z,101588.91
2022-08-01T16:41:37.589Z,101576.13
2022-08-01T16:44:28.654Z,101558.38
2022-08-01T16:47:09.804Z,101514.66
2022-08-01T16:49:44.141Z,101534.44
2022-08-01T16:52:16.755Z,101591.28
2022-08-01T16:54:57.412Z,101538.97
2022-08-01T16:57:42.838Z,101530.56
2022-08-01T17:00:22.760Z,101511.59
2022-08-01T17:03:00.079Z,101519.28
2022-08-01T17:05:39.422Z,101540.78
2022-08-01T17:08:15.061Z,101516.44
2022-08-01T17:10:48.643Z,101521.41
2022-08-01T17:13:23.541Z,101544.50
2022-08-01T17:16:01.458Z,101550.56
2022-08-01T17:18:47.477Z,101541.53
2022-08-01T17:21:25.728Z,101597.41
2022-08-01T17:36:11.878Z,101509.25
2022-08-01T17:39:02.175Z,101560.56
2022-08-01T17:41:45.663Z,101508.16
2022-08-01T17:47:34.647Z,101512.13
2022-08-01T17:50:12.826Z,101554.75
2022-08-01T17:52:46.302Z,101511.72
2022-08-01T17:55:55.876Z,101490.22
2022-08-01T17:58:45.062Z,101500.63
2022-08-01T18:01:27.840Z,101571.72
2022-08-01T18:04:06.136Z,101600.59
2022-08-01T18:06:39.009Z,101530.59
2022-08-01T18:09:39.542Z,101608.50
2022-08-01T18:12:20.089Z,101592.13
2022-08-01T18:14:58.822Z,101556.84
2022-08-01T18:17:33.201Z,101562.31
2022-08-01T18:20:07.011Z,101579.00
2022-08-01T18:22:44.892Z,101566.25
2022-08-01T18:25:23.660Z,101618.63
2022-08-01T18:28:16.477Z,101522.56
2022-08-01T18:31:02.091Z,101565.34
2022-08-01T18:33:37.698Z,101530.28
2022-08-01T18:36:21.116Z,101546.63
2022-08-01T18:39:20.207Z,101518.53
2022-08-01T18:42:04.242Z,101626.09
2022-08-01T18:44:37.490Z,101549.47
2022-08-01T18:47:16.302Z,101547.97
2022-08-01T18:50:07.654Z,101560.38
2022-08-01T18:52:48.221Z,101510.34
2022-08-01T18:55:23.246Z,101548.28
2022-08-01T18:57:56.035Z,101517.03
2022-08-01T19:00:40.101Z,101558.22
2022-08-01T19:03:25.838Z,101574.69
2022-08-01T19:06:01.971Z,101516.66
2022-08-01T19:08:38.438Z,101522.72
2022-08-01T19:11:30.126Z,101507.88
2022-08-01T19:14:07.306Z,101623.41
2022-08-01T19:16:40.175Z,101522.69
2022-08-01T19:19:14.856Z,101607.44
2022-08-01T19:22:09.821Z,101555.63
2022-08-01T19:24:49.971Z,101531.53
2022-08-01T19:27:30.058Z,101541.38
2022-08-01T19:30:10.025Z,101597.31
2022-08-01T19:32:45.279Z,101567.78
2022-08-01T19:35:22.656Z,101600.00
2022-08-01T19:38:01.793Z,101607.41
2022-08-01T19:40:42.972Z,101535.72
2022-08-01T19:43:24.160Z,101551.31
2022-08-01T19:45:59.514Z,101663.97
2022-08-01T19:48:43.101Z,101547.00
2022-08-01T19:51:22.687Z,101625.31
2022-08-01T19:54:10.892Z,101569.97
2022-08-01T19:56:46.968Z,101625.13
2022-08-01T19:59:24.872Z,101590.88
2022-08-01T20:02:07.083Z,101610.81
2022-08-01T20:04:39.930Z,101640.81
2022-08-01T20:07:14.356Z,101604.38
2022-08-01T20:09:50.716Z,101638.03
2022-08-01T20:12:29.439Z,101595.78
2022-08-01T20:15:03.176Z,101562.50
2022-08-01T20:17:36.315Z,101544.88
2022-08-01T20:20:14.572Z,101567.28
2022-08-01T20:22:49.634Z,101674.09
2022-08-01T20:25:37.343Z,101560.97
2022-08-01T20:28:16.981Z,101599.00
2022-08-01T20:31:03.506Z,101584.59
2022-08-01T20:33:49.143Z,101666.13
2022-08-01T20:36:26.092Z,101606.81
2022-08-01T20:39:01.470Z,101626.97
2022-08-01T20:41:38.615Z,101616.13
2022-08-01T20:44:14.509Z,101556.94
2022-08-01T20:46:54.425Z,101575.78
2022-08-01T20:49:27.676Z,101622.03
2022-08-01T20:52:02.095Z,101551.94
2022-08-01T20:54:45.317Z,101548.84
2022-08-01T20:57:32.347Z,101565.88
2022-08-01T21:00:07.945Z,101562.56
2022-08-01T21:02:54.453Z,101634.84
2022-08-01T21:05:41.453Z,101672.78
2022-08-01T21:08:50.035Z,101643.47
2022-08-01T21:11:36.598Z,101648.41
2022-08-01T21:14:17.903Z,101641.03
2022-08-01T21:17:03.794Z,101585.66
2022-08-01T21:19:40.277Z,101617.34
2022-08-01T21:22:27.283Z,101571.88
2022-08-01T21:25:17.449Z,101592.41
2022-08-01T21:27:52.519Z,101619.75
2022-08-01T21:30:27.340Z,101604.84
2022-08-01T21:33:04.253Z,101558.44
2022-08-01T21:35:37.719Z,101684.13
2022-08-01T21:38:13.205Z,101594.19
2022-08-01T21:40:48.979Z,101558.88
2022-08-01T21:43:23.032Z,101617.78
2022-08-01T21:45:58.125Z,101591.16
2022-08-01T21:48:32.395Z,101576.63
2022-08-01T21:51:40.796Z,101653.47
2022-08-01T21:54:29.463Z,101646.06
2022-08-01T21:57:41.839Z,101684.53
2022-08-01T22:00:25.510Z,101633.72
2022-08-01T22:03:14.952Z,101673.41
2022-08-01T22:05:53.466Z,101610.16
2022-08-01T22:08:40.134Z,101643.06
2022-08-01T22:11:21.388Z,101549.97
2022-08-01T22:14:00.237Z,101608.72
2022-08-01T22:16:40.355Z,101562.34
2022-08-01T22:19:37.843Z,101630.84
2022-08-01T22:22:50.985Z,101616.31
2022-08-01T22:25:16.458Z,101632.78
2022-08-01T22:28:08.483Z,101598.66
2022-08-01T22:30:43.208Z,101583.47
2022-08-01T22:33:17.921Z,101639.88
2022-08-01T22:35:54.978Z,101616.38
2022-08-01T22:38:27.972Z,101634.91
2022-08-01T22:41:09.543Z,101569.59
2022-08-01T22:44:18.604Z,101633.84
2022-08-01T22:47:10.083Z,101593.94
2022-08-01T22:50:03.058Z,101612.13
2022-08-01T22:52:56.528Z,101605.06
2022-08-01T22:55:57.872Z,101623.34
2022-08-01T22:58:26.709Z,101569.97
2022-08-01T23:01:06.826Z,101608.66
2022-08-01T23:03:49.643Z,101605.59
2022-08-01T23:06:41.336Z,101593.66
2022-08-01T23:09:15.269Z,101555.31
2022-08-01T23:11:49.446Z,101586.94
2022-08-01T23:14:23.132Z,101629.81
2022-08-01T23:17:03.075Z,101621.19
2022-08-01T23:20:07.498Z,101626.59
2022-08-01T23:22:42.692Z,101652.19
2022-08-01T23:25:16.742Z,101618.78
2022-08-01T23:27:54.199Z,101592.28
2022-08-01T23:30:38.987Z,101661.81
2022-08-01T23:33:11.779Z,101569.81
2022-08-01T23:35:48.855Z,101553.72
2022-08-01T23:38:21.640Z,101656.28
2022-08-01T23:40:54.538Z,101647.81
2022-08-01T23:43:27.355Z,101647.00
2022-08-01T23:46:04.449Z,101564.69
2022-08-01T23:48:38.921Z,101635.91
2022-08-01T23:51:24.035Z,101567.69
2022-08-01T23:54:00.561Z,101572.03
2022-08-01T23:56:33.858Z,101562.66
2022-08-01T23:59:06.638Z,101625.28
